Presidente Olegario, Brazil
Current Conditions -  °F | °C
As of 6:00 AM on Sunday 21 Dec 2014 (Local Time) from SBUL Reporting Station
Broken Clouds Broken Clouds  
Wind Chill: 66°   Ceiling: 900
Heat Index: 66°   Visibility: 6mi
Dew Point: 64°   Wind: 8mph
Humidity: 94%   Direction: 10°N
Pressure: 29.94"   Gusts: NA
Location:  18.42°S, 46.42°W
Report Text: SBUL 210800Z 01007KT 9999 BKN009 BKN100 19/18 Q1014
Loading
Personal Weather Stations






























Interactive Weather Map New forecast layout! Learn more

10-Day Weather Forecast

Advertisements
Track Severe Weather on mobile